sensor_id;sensor_type;location;lat;lon;timestamp;temperature;humidity
12959;DHT22;6544;51.666;6.634;2022-07-29T00:01:33;19.40;95.20
12959;DHT22;6544;51.666;6.634;2022-07-29T00:04:00;19.40;94.90
12959;DHT22;6544;51.666;6.634;2022-07-29T00:06:28;19.40;95.80
12959;DHT22;6544;51.666;6.634;2022-07-29T00:08:55;19.30;96.10
12959;DHT22;6544;51.666;6.634;2022-07-29T00:11:22;19.20;96.40
12959;DHT22;6544;51.666;6.634;2022-07-29T00:13:49;19.20;97.00
12959;DHT22;6544;51.666;6.634;2022-07-29T00:16:16;19.20;97.00
12959;DHT22;6544;51.666;6.634;2022-07-29T00:18:43;19.20;96.80
12959;DHT22;6544;51.666;6.634;2022-07-29T00:21:10;19.30;97.10
12959;DHT22;6544;51.666;6.634;2022-07-29T00:23:38;19.20;97.30
12959;DHT22;6544;51.666;6.634;2022-07-29T00:26:05;19.30;97.30
12959;DHT22;6544;51.666;6.634;2022-07-29T00:28:32;19.30;97.30
12959;DHT22;6544;51.666;6.634;2022-07-29T00:30:59;19.20;97.60
12959;DHT22;6544;51.666;6.634;2022-07-29T00:33:26;19.20;98.40
12959;DHT22;6544;51.666;6.634;2022-07-29T00:35:53;19.30;97.80
12959;DHT22;6544;51.666;6.634;2022-07-29T00:38:20;19.20;97.90
12959;DHT22;6544;51.666;6.634;2022-07-29T00:40:49;19.10;98.80
12959;DHT22;6544;51.666;6.634;2022-07-29T00:43:17;19.20;98.70
12959;DHT22;6544;51.666;6.634;2022-07-29T00:45:44;19.20;98.00
12959;DHT22;6544;51.666;6.634;2022-07-29T00:48:11;19.30;97.80
12959;DHT22;6544;51.666;6.634;2022-07-29T00:50:38;19.30;97.90
12959;DHT22;6544;51.666;6.634;2022-07-29T00:53:06;19.30;97.60
12959;DHT22;6544;51.666;6.634;2022-07-29T00:55:34;19.30;98.20
12959;DHT22;6544;51.666;6.634;2022-07-29T00:58:02;19.20;98.20
12959;DHT22;6544;51.666;6.634;2022-07-29T01:00:29;19.10;99.80
12959;DHT22;6544;51.666;6.634;2022-07-29T01:02:57;19.00;99.90
12959;DHT22;6544;51.666;6.634;2022-07-29T01:05:26;18.90;99.90
12959;DHT22;6544;51.666;6.634;2022-07-29T01:07:54;18.90;99.90
12959;DHT22;6544;51.666;6.634;2022-07-29T01:10:22;18.80;99.90
12959;DHT22;6544;51.666;6.634;2022-07-29T01:12:51;18.80;99.90
12959;DHT22;6544;51.666;6.634;2022-07-29T01:15:21;18.80;99.90
12959;DHT22;6544;51.666;6.634;2022-07-29T01:17:53;18.70;99.90
12959;DHT22;6544;51.666;6.634;2022-07-29T01:20:26;18.70;99.90
12959;DHT22;6544;51.666;6.634;2022-07-29T01:23:11;18.40;99.90
12959;DHT22;6544;51.666;6.634;2022-07-29T01:26:00;18.40;99.90
12959;DHT22;6544;51.666;6.634;2022-07-29T01:28:51;18.50;99.90
12959;DHT22;6544;51.666;6.634;2022-07-29T01:31:28;18.50;99.90
12959;DHT22;6544;51.666;6.634;2022-07-29T01:34:03;18.40;99.90
12959;DHT22;6544;51.666;6.634;2022-07-29T01:36:35;18.50;99.90
12959;DHT22;6544;51.666;6.634;2022-07-29T01:39:08;18.50;99.90
12959;DHT22;6544;51.666;6.634;2022-07-29T01:41:40;18.50;99.90
12959;DHT22;6544;51.666;6.634;2022-07-29T01:44:17;18.60;99.90
12959;DHT22;6544;51.666;6.634;2022-07-29T01:46:52;18.70;99.90
12959;DHT22;6544;51.666;6.634;2022-07-29T01:49:24;18.50;99.90
12959;DHT22;6544;51.666;6.634;2022-07-29T01:51:56;18.20;99.90
12959;DHT22;6544;51.666;6.634;2022-07-29T01:54:28;18.20;99.90
12959;DHT22;6544;51.666;6.634;2022-07-29T01:56:58;18.10;99.90
12959;DHT22;6544;51.666;6.634;2022-07-29T01:59:28;18.00;99.90
12959;DHT22;6544;51.666;6.634;2022-07-29T02:01:58;18.10;99.90
12959;DHT22;6544;51.666;6.634;2022-07-29T02:04:26;18.10;99.90
12959;DHT22;6544;51.666;6.634;2022-07-29T02:06:57;18.20;99.90
12959;DHT22;6544;51.666;6.634;2022-07-29T02:09:25;18.20;99.90
12959;DHT22;6544;51.666;6.634;2022-07-29T02:11:54;18.10;99.90
12959;DHT22;6544;51.666;6.634;2022-07-29T02:14:23;18.30;99.90
12959;DHT22;6544;51.666;6.634;2022-07-29T02:16:54;18.30;99.90
12959;DHT22;6544;51.666;6.634;2022-07-29T02:19:23;18.30;99.90
12959;DHT22;6544;51.666;6.634;2022-07-29T02:21:53;18.00;99.90
12959;DHT22;6544;51.666;6.634;2022-07-29T02:24:22;17.90;99.90
12959;DHT22;6544;51.666;6.634;2022-07-29T02:26:50;17.80;99.90
12959;DHT22;6544;51.666;6.634;2022-07-29T02:29:20;17.70;99.90
12959;DHT22;6544;51.666;6.634;2022-07-29T02:31:49;17.50;99.90
12959;DHT22;6544;51.666;6.634;2022-07-29T02:34:19;17.50;99.90
12959;DHT22;6544;51.666;6.634;2022-07-29T02:36:47;17.50;99.90
12959;DHT22;6544;51.666;6.634;2022-07-29T02:39:15;17.50;99.90
12959;DHT22;6544;51.666;6.634;2022-07-29T02:41:45;17.50;99.90
12959;DHT22;6544;51.666;6.634;2022-07-29T02:44:14;17.50;99.90
12959;DHT22;6544;51.666;6.634;2022-07-29T02:46:45;17.50;99.90
12959;DHT22;6544;51.666;6.634;2022-07-29T02:49:16;17.30;99.90
12959;DHT22;6544;51.666;6.634;2022-07-29T02:51:51;17.30;99.90
12959;DHT22;6544;51.666;6.634;2022-07-29T02:54:25;17.30;99.90
12959;DHT22;6544;51.666;6.634;2022-07-29T02:56:53;17.20;99.90
12959;DHT22;6544;51.666;6.634;2022-07-29T02:59:26;17.20;99.90
12959;DHT22;6544;51.666;6.634;2022-07-29T03:01:55;17.10;99.90
12959;DHT22;6544;51.666;6.634;2022-07-29T03:04:24;17.20;99.90
12959;DHT22;6544;51.666;6.634;2022-07-29T03:06:55;17.20;99.90
12959;DHT22;6544;51.666;6.634;2022-07-29T03:09:23;17.10;99.90
12959;DHT22;6544;51.666;6.634;2022-07-29T03:11:52;17.10;99.90
12959;DHT22;6544;51.666;6.634;2022-07-29T03:14:20;17.10;99.90
12959;DHT22;6544;51.666;6.634;2022-07-29T03:16:48;17.00;99.90
12959;DHT22;6544;51.666;6.634;2022-07-29T03:19:16;16.90;99.90
12959;DHT22;6544;51.666;6.634;2022-07-29T03:21:43;16.90;99.90
12959;DHT22;6544;51.666;6.634;2022-07-29T03:24:24;17.00;99.90
12959;DHT22;6544;51.666;6.634;2022-07-29T03:26:51;16.90;99.90
12959;DHT22;6544;51.666;6.634;2022-07-29T03:29:18;16.80;99.90
12959;DHT22;6544;51.666;6.634;2022-07-29T03:31:45;16.70;99.90
12959;DHT22;6544;51.666;6.634;2022-07-29T03:34:12;16.70;99.90
12959;DHT22;6544;51.666;6.634;2022-07-29T03:36:39;16.70;99.90
12959;DHT22;6544;51.666;6.634;2022-07-29T03:39:06;16.70;99.90
12959;DHT22;6544;51.666;6.634;2022-07-29T03:41:37;16.60;99.90
12959;DHT22;6544;51.666;6.634;2022-07-29T03:44:07;16.70;99.90
12959;DHT22;6544;51.666;6.634;2022-07-29T03:46:36;16.70;99.90
12959;DHT22;6544;51.666;6.634;2022-07-29T03:49:04;16.70;99.90
12959;DHT22;6544;51.666;6.634;2022-07-29T03:51:34;16.80;99.90
12959;DHT22;6544;51.666;6.634;2022-07-29T03:54:01;16.80;99.90
12959;DHT22;6544;51.666;6.634;2022-07-29T03:56:29;16.90;99.90
12959;DHT22;6544;51.666;6.634;2022-07-29T03:59:01;16.80;99.90
12959;DHT22;6544;51.666;6.634;2022-07-29T04:01:29;16.80;99.90
12959;DHT22;6544;51.666;6.634;2022-07-29T04:03:56;16.60;99.90
12959;DHT22;6544;51.666;6.634;2022-07-29T04:06:23;16.70;99.90
12959;DHT22;6544;51.666;6.634;2022-07-29T04:08:51;16.80;99.90
12959;DHT22;6544;51.666;6.634;2022-07-29T04:11:18;16.70;99.90
12959;DHT22;6544;51.666;6.634;2022-07-29T04:13:45;16.80;99.90
12959;DHT22;6544;51.666;6.634;2022-07-29T04:16:13;16.80;99.90
12959;DHT22;6544;51.666;6.634;2022-07-29T04:18:40;16.90;99.90
12959;DHT22;6544;51.666;6.634;2022-07-29T04:21:07;17.00;99.90
12959;DHT22;6544;51.666;6.634;2022-07-29T04:23:34;17.00;99.90
12959;DHT22;6544;51.666;6.634;2022-07-29T04:26:01;17.10;99.90
12959;DHT22;6544;51.666;6.634;2022-07-29T04:28:28;17.30;99.90
12959;DHT22;6544;51.666;6.634;2022-07-29T04:30:55;17.50;99.90
12959;DHT22;6544;51.666;6.634;2022-07-29T04:33:23;17.50;99.90
12959;DHT22;6544;51.666;6.634;2022-07-29T04:35:50;17.60;99.90
12959;DHT22;6544;51.666;6.634;2022-07-29T04:38:17;17.60;99.90
12959;DHT22;6544;51.666;6.634;2022-07-29T04:40:44;17.70;99.90
12959;DHT22;6544;51.666;6.634;2022-07-29T04:43:10;17.70;99.90
12959;DHT22;6544;51.666;6.634;2022-07-29T04:45:37;17.70;99.90
12959;DHT22;6544;51.666;6.634;2022-07-29T04:48:05;17.60;99.90
12959;DHT22;6544;51.666;6.634;2022-07-29T04:50:34;17.60;99.90
12959;DHT22;6544;51.666;6.634;2022-07-29T04:53:01;17.70;99.90
12959;DHT22;6544;51.666;6.634;2022-07-29T04:55:28;17.70;99.90
12959;DHT22;6544;51.666;6.634;2022-07-29T04:57:55;17.50;99.90
12959;DHT22;6544;51.666;6.634;2022-07-29T05:00:22;17.40;99.90
12959;DHT22;6544;51.666;6.634;2022-07-29T05:02:49;17.10;99.90
12959;DHT22;6544;51.666;6.634;2022-07-29T05:05:16;16.70;99.90
12959;DHT22;6544;51.666;6.634;2022-07-29T05:07:44;16.50;99.90
12959;DHT22;6544;51.666;6.634;2022-07-29T05:10:11;16.30;99.90
12959;DHT22;6544;51.666;6.634;2022-07-29T05:12:38;16.20;99.90
12959;DHT22;6544;51.666;6.634;2022-07-29T05:15:06;16.00;99.90
12959;DHT22;6544;51.666;6.634;2022-07-29T05:17:33;15.90;99.90
12959;DHT22;6544;51.666;6.634;2022-07-29T05:20:01;16.00;99.90
12959;DHT22;6544;51.666;6.634;2022-07-29T05:22:27;16.30;99.90
12959;DHT22;6544;51.666;6.634;2022-07-29T05:24:56;16.30;99.90
12959;DHT22;6544;51.666;6.634;2022-07-29T05:27:23;16.20;99.90
12959;DHT22;6544;51.666;6.634;2022-07-29T05:29:50;16.40;99.90
12959;DHT22;6544;51.666;6.634;2022-07-29T05:32:17;16.50;99.90
12959;DHT22;6544;51.666;6.634;2022-07-29T05:34:44;16.50;99.90
12959;DHT22;6544;51.666;6.634;2022-07-29T05:37:11;16.60;99.90
12959;DHT22;6544;51.666;6.634;2022-07-29T05:39:39;16.50;99.90
12959;DHT22;6544;51.666;6.634;2022-07-29T05:42:09;16.40;99.90
12959;DHT22;6544;51.666;6.634;2022-07-29T05:44:37;16.10;99.90
12959;DHT22;6544;51.666;6.634;2022-07-29T05:47:04;16.10;99.90
12959;DHT22;6544;51.666;6.634;2022-07-29T05:49:32;16.20;99.90
12959;DHT22;6544;51.666;6.634;2022-07-29T05:52:02;16.40;99.90
12959;DHT22;6544;51.666;6.634;2022-07-29T05:54:29;16.50;99.90
12959;DHT22;6544;51.666;6.634;2022-07-29T05:56:56;16.60;99.90
12959;DHT22;6544;51.666;6.634;2022-07-29T05:59:24;16.50;99.90
12959;DHT22;6544;51.666;6.634;2022-07-29T06:01:51;16.60;99.90
12959;DHT22;6544;51.666;6.634;2022-07-29T06:04:18;16.50;99.90
12959;DHT22;6544;51.666;6.634;2022-07-29T06:06:45;16.30;99.90
12959;DHT22;6544;51.666;6.634;2022-07-29T06:09:12;16.20;99.90
12959;DHT22;6544;51.666;6.634;2022-07-29T06:11:39;16.10;99.90
12959;DHT22;6544;51.666;6.634;2022-07-29T06:14:06;16.00;99.90
12959;DHT22;6544;51.666;6.634;2022-07-29T06:16:34;16.00;99.90
12959;DHT22;6544;51.666;6.634;2022-07-29T06:19:01;15.80;99.90
12959;DHT22;6544;51.666;6.634;2022-07-29T06:21:28;15.70;99.90
12959;DHT22;6544;51.666;6.634;2022-07-29T06:23:55;15.80;99.90
12959;DHT22;6544;51.666;6.634;2022-07-29T06:26:22;15.80;99.90
12959;DHT22;6544;51.666;6.634;2022-07-29T06:28:49;15.80;99.90
12959;DHT22;6544;51.666;6.634;2022-07-29T06:31:19;15.70;99.90
12959;DHT22;6544;51.666;6.634;2022-07-29T06:33:47;15.60;99.90
12959;DHT22;6544;51.666;6.634;2022-07-29T06:36:14;15.70;99.90
12959;DHT22;6544;51.666;6.634;2022-07-29T06:38:41;15.80;99.90
12959;DHT22;6544;51.666;6.634;2022-07-29T06:41:08;15.90;99.90
12959;DHT22;6544;51.666;6.634;2022-07-29T06:43:42;15.80;99.90
12959;DHT22;6544;51.666;6.634;2022-07-29T06:46:10;15.90;99.90
12959;DHT22;6544;51.666;6.634;2022-07-29T06:48:38;15.90;99.90
12959;DHT22;6544;51.666;6.634;2022-07-29T06:51:08;16.10;99.90
12959;DHT22;6544;51.666;6.634;2022-07-29T06:53:35;16.30;99.90
12959;DHT22;6544;51.666;6.634;2022-07-29T06:56:04;16.30;99.90
12959;DHT22;6544;51.666;6.634;2022-07-29T06:58:34;16.20;99.90
12959;DHT22;6544;51.666;6.634;2022-07-29T07:01:02;16.30;99.90
12959;DHT22;6544;51.666;6.634;2022-07-29T07:03:30;16.30;99.90
12959;DHT22;6544;51.666;6.634;2022-07-29T07:05:57;16.10;99.90
12959;DHT22;6544;51.666;6.634;2022-07-29T07:08:27;16.00;99.90
12959;DHT22;6544;51.666;6.634;2022-07-29T07:10:54;15.80;99.90
12959;DHT22;6544;51.666;6.634;2022-07-29T07:13:22;15.80;99.90
12959;DHT22;6544;51.666;6.634;2022-07-29T07:15:49;16.00;99.90
12959;DHT22;6544;51.666;6.634;2022-07-29T07:18:18;16.20;99.90
12959;DHT22;6544;51.666;6.634;2022-07-29T07:20:45;16.40;99.90
12959;DHT22;6544;51.666;6.634;2022-07-29T07:23:13;16.60;99.90
12959;DHT22;6544;51.666;6.634;2022-07-29T07:25:41;16.60;99.90
12959;DHT22;6544;51.666;6.634;2022-07-29T07:28:08;16.70;99.90
12959;DHT22;6544;51.666;6.634;2022-07-29T07:30:35;16.70;99.90
12959;DHT22;6544;51.666;6.634;2022-07-29T07:33:02;16.80;99.90
12959;DHT22;6544;51.666;6.634;2022-07-29T07:35:30;16.80;99.90
12959;DHT22;6544;51.666;6.634;2022-07-29T07:37:57;16.70;99.90
12959;DHT22;6544;51.666;6.634;2022-07-29T07:40:24;16.60;99.90
12959;DHT22;6544;51.666;6.634;2022-07-29T07:42:53;16.50;99.90
12959;DHT22;6544;51.666;6.634;2022-07-29T07:45:20;16.50;99.90
12959;DHT22;6544;51.666;6.634;2022-07-29T07:47:47;16.60;99.90
12959;DHT22;6544;51.666;6.634;2022-07-29T07:50:14;16.60;99.90
12959;DHT22;6544;51.666;6.634;2022-07-29T07:52:47;16.70;99.90
12959;DHT22;6544;51.666;6.634;2022-07-29T07:55:14;16.70;99.90
12959;DHT22;6544;51.666;6.634;2022-07-29T07:57:41;16.80;99.90
12959;DHT22;6544;51.666;6.634;2022-07-29T08:00:11;16.80;99.90
12959;DHT22;6544;51.666;6.634;2022-07-29T08:02:38;16.70;99.90
12959;DHT22;6544;51.666;6.634;2022-07-29T08:05:06;16.40;99.90
12959;DHT22;6544;51.666;6.634;2022-07-29T08:07:33;16.30;99.90
12959;DHT22;6544;51.666;6.634;2022-07-29T08:10:00;16.40;99.90
12959;DHT22;6544;51.666;6.634;2022-07-29T08:12:27;16.50;99.90
12959;DHT22;6544;51.666;6.634;2022-07-29T08:14:54;16.60;99.90
12959;DHT22;6544;51.666;6.634;2022-07-29T08:17:22;16.50;99.90
12959;DHT22;6544;51.666;6.634;2022-07-29T08:19:49;16.40;99.90
12959;DHT22;6544;51.666;6.634;2022-07-29T08:22:16;16.10;99.90
12959;DHT22;6544;51.666;6.634;2022-07-29T08:24:43;16.00;99.90
12959;DHT22;6544;51.666;6.634;2022-07-29T08:27:13;15.90;99.90
12959;DHT22;6544;51.666;6.634;2022-07-29T08:29:40;16.00;99.90
12959;DHT22;6544;51.666;6.634;2022-07-29T08:32:07;16.20;99.90
12959;DHT22;6544;51.666;6.634;2022-07-29T08:34:35;16.50;99.90
12959;DHT22;6544;51.666;6.634;2022-07-29T08:37:02;16.50;99.90
12959;DHT22;6544;51.666;6.634;2022-07-29T08:39:29;16.50;99.90
12959;DHT22;6544;51.666;6.634;2022-07-29T08:41:56;16.40;99.90
12959;DHT22;6544;51.666;6.634;2022-07-29T08:44:23;16.20;99.90
12959;DHT22;6544;51.666;6.634;2022-07-29T08:46:51;16.30;99.90
12959;DHT22;6544;51.666;6.634;2022-07-29T08:49:18;16.40;99.90
12959;DHT22;6544;51.666;6.634;2022-07-29T08:51:46;16.60;99.90
12959;DHT22;6544;51.666;6.634;2022-07-29T08:54:17;16.70;99.90
12959;DHT22;6544;51.666;6.634;2022-07-29T08:56:45;16.60;99.90
12959;DHT22;6544;51.666;6.634;2022-07-29T08:59:14;16.50;99.90
12959;DHT22;6544;51.666;6.634;2022-07-29T09:01:43;16.40;99.90
12959;DHT22;6544;51.666;6.634;2022-07-29T09:04:12;16.40;99.90
12959;DHT22;6544;51.666;6.634;2022-07-29T09:06:43;16.50;99.90
12959;DHT22;6544;51.666;6.634;2022-07-29T09:09:12;16.30;99.90
12959;DHT22;6544;51.666;6.634;2022-07-29T09:11:40;16.10;99.90
12959;DHT22;6544;51.666;6.634;2022-07-29T09:14:08;16.00;99.90
12959;DHT22;6544;51.666;6.634;2022-07-29T09:16:48;15.90;99.90
12959;DHT22;6544;51.666;6.634;2022-07-29T09:19:27;15.80;99.90
12959;DHT22;6544;51.666;6.634;2022-07-29T09:21:55;15.90;99.90
12959;DHT22;6544;51.666;6.634;2022-07-29T09:24:28;15.90;99.90
12959;DHT22;6544;51.666;6.634;2022-07-29T09:27:03;15.80;99.90
12959;DHT22;6544;51.666;6.634;2022-07-29T09:29:34;15.90;99.90
12959;DHT22;6544;51.666;6.634;2022-07-29T09:32:05;15.90;99.90
12959;DHT22;6544;51.666;6.634;2022-07-29T09:34:33;16.10;99.90
12959;DHT22;6544;51.666;6.634;2022-07-29T09:36:59;16.10;99.90
12959;DHT22;6544;51.666;6.634;2022-07-29T09:39:29;16.20;99.90
12959;DHT22;6544;51.666;6.634;2022-07-29T09:41:59;16.30;99.90
12959;DHT22;6544;51.666;6.634;2022-07-29T09:44:26;16.20;99.90
12959;DHT22;6544;51.666;6.634;2022-07-29T09:46:58;16.30;99.90
12959;DHT22;6544;51.666;6.634;2022-07-29T09:49:31;16.30;99.90
12959;DHT22;6544;51.666;6.634;2022-07-29T09:52:05;16.30;99.90
12959;DHT22;6544;51.666;6.634;2022-07-29T09:54:34;16.30;99.90
12959;DHT22;6544;51.666;6.634;2022-07-29T09:57:04;16.40;99.90
12959;DHT22;6544;51.666;6.634;2022-07-29T09:59:31;16.20;99.90
12959;DHT22;6544;51.666;6.634;2022-07-29T10:02:01;16.10;99.90
12959;DHT22;6544;51.666;6.634;2022-07-29T10:04:39;16.10;99.90
12959;DHT22;6544;51.666;6.634;2022-07-29T10:07:06;16.20;99.90
12959;DHT22;6544;51.666;6.634;2022-07-29T10:09:35;16.50;99.90
12959;DHT22;6544;51.666;6.634;2022-07-29T10:12:07;16.60;99.90
12959;DHT22;6544;51.666;6.634;2022-07-29T10:14:35;16.80;99.90
12959;DHT22;6544;51.666;6.634;2022-07-29T10:17:04;16.90;99.90
12959;DHT22;6544;51.666;6.634;2022-07-29T10:19:32;16.80;99.90
12959;DHT22;6544;51.666;6.634;2022-07-29T10:22:00;16.70;99.90
12959;DHT22;6544;51.666;6.634;2022-07-29T10:24:28;16.40;99.90
12959;DHT22;6544;51.666;6.634;2022-07-29T10:26:58;16.30;99.90
12959;DHT22;6544;51.666;6.634;2022-07-29T10:29:26;16.20;99.90
12959;DHT22;6544;51.666;6.634;2022-07-29T10:32:14;16.00;99.90
12959;DHT22;6544;51.666;6.634;2022-07-29T10:35:03;16.20;99.90
12959;DHT22;6544;51.666;6.634;2022-07-29T10:37:41;16.40;99.90
12959;DHT22;6544;51.666;6.634;2022-07-29T10:40:22;16.60;99.90
12959;DHT22;6544;51.666;6.634;2022-07-29T10:43:24;16.70;99.90
12959;DHT22;6544;51.666;6.634;2022-07-29T10:45:56;16.70;99.90
12959;DHT22;6544;51.666;6.634;2022-07-29T10:48:23;16.80;99.90
12959;DHT22;6544;51.666;6.634;2022-07-29T10:50:58;17.00;99.90
12959;DHT22;6544;51.666;6.634;2022-07-29T10:53:46;17.00;99.90
12959;DHT22;6544;51.666;6.634;2022-07-29T10:56:24;17.20;99.90
12959;DHT22;6544;51.666;6.634;2022-07-29T10:59:26;17.40;99.90
12959;DHT22;6544;51.666;6.634;2022-07-29T11:01:56;17.40;99.90
12959;DHT22;6544;51.666;6.634;2022-07-29T11:05:00;17.60;99.90
12959;DHT22;6544;51.666;6.634;2022-07-29T11:07:29;17.80;99.90
12959;DHT22;6544;51.666;6.634;2022-07-29T11:10:21;18.00;99.90
12959;DHT22;6544;51.666;6.634;2022-07-29T11:12:49;18.10;99.90
12959;DHT22;6544;51.666;6.634;2022-07-29T11:15:19;18.30;99.90
12959;DHT22;6544;51.666;6.634;2022-07-29T11:18:06;18.50;99.90
12959;DHT22;6544;51.666;6.634;2022-07-29T11:20:36;18.70;99.90
12959;DHT22;6544;51.666;6.634;2022-07-29T11:23:23;18.80;99.90
12959;DHT22;6544;51.666;6.634;2022-07-29T11:26:13;18.90;99.90
12959;DHT22;6544;51.666;6.634;2022-07-29T11:28:50;19.00;99.90
12959;DHT22;6544;51.666;6.634;2022-07-29T11:31:32;19.40;99.90
12959;DHT22;6544;51.666;6.634;2022-07-29T11:34:21;19.50;99.90
12959;DHT22;6544;51.666;6.634;2022-07-29T11:37:20;19.70;99.90
12959;DHT22;6544;51.666;6.634;2022-07-29T11:40:15;20.00;99.90
12959;DHT22;6544;51.666;6.634;2022-07-29T11:42:46;19.90;99.90
12959;DHT22;6544;51.666;6.634;2022-07-29T11:45:25;20.00;99.90
12959;DHT22;6544;51.666;6.634;2022-07-29T11:47:59;20.40;99.90
12959;DHT22;6544;51.666;6.634;2022-07-29T11:50:34;20.50;99.90
12959;DHT22;6544;51.666;6.634;2022-07-29T11:53:05;20.90;99.90
12959;DHT22;6544;51.666;6.634;2022-07-29T11:55:37;21.00;99.90
12959;DHT22;6544;51.666;6.634;2022-07-29T11:58:05;21.00;99.90
12959;DHT22;6544;51.666;6.634;2022-07-29T12:00:33;21.10;99.90
12959;DHT22;6544;51.666;6.634;2022-07-29T12:03:03;21.30;99.90
12959;DHT22;6544;51.666;6.634;2022-07-29T12:05:36;21.10;99.90
12959;DHT22;6544;51.666;6.634;2022-07-29T12:08:12;21.40;99.90
12959;DHT22;6544;51.666;6.634;2022-07-29T12:10:40;21.50;99.90
12959;DHT22;6544;51.666;6.634;2022-07-29T12:13:09;21.90;99.90
12959;DHT22;6544;51.666;6.634;2022-07-29T12:15:37;22.30;99.90
12959;DHT22;6544;51.666;6.634;2022-07-29T12:18:13;22.70;99.90
12959;DHT22;6544;51.666;6.634;2022-07-29T12:20:41;23.10;99.90
12959;DHT22;6544;51.666;6.634;2022-07-29T12:23:09;23.50;99.90
12959;DHT22;6544;51.666;6.634;2022-07-29T12:25:39;23.20;99.90
12959;DHT22;6544;51.666;6.634;2022-07-29T12:28:08;22.70;99.90
12959;DHT22;6544;51.666;6.634;2022-07-29T12:30:40;22.80;99.90
12959;DHT22;6544;51.666;6.634;2022-07-29T12:33:23;22.70;99.90
12959;DHT22;6544;51.666;6.634;2022-07-29T12:35:52;22.50;99.90
12959;DHT22;6544;51.666;6.634;2022-07-29T12:38:20;22.30;99.90
12959;DHT22;6544;51.666;6.634;2022-07-29T12:40:48;21.90;99.90
12959;DHT22;6544;51.666;6.634;2022-07-29T12:43:17;22.10;99.90
12959;DHT22;6544;51.666;6.634;2022-07-29T12:45:46;22.10;99.90
12959;DHT22;6544;51.666;6.634;2022-07-29T12:48:14;22.60;99.90
12959;DHT22;6544;51.666;6.634;2022-07-29T12:50:56;22.60;99.90
12959;DHT22;6544;51.666;6.634;2022-07-29T12:53:24;22.70;99.90
12959;DHT22;6544;51.666;6.634;2022-07-29T12:55:55;22.10;99.90
12959;DHT22;6544;51.666;6.634;2022-07-29T12:58:30;22.10;99.90
12959;DHT22;6544;51.666;6.634;2022-07-29T13:01:06;22.50;99.90
12959;DHT22;6544;51.666;6.634;2022-07-29T13:03:45;22.70;99.90
12959;DHT22;6544;51.666;6.634;2022-07-29T13:06:42;22.60;99.90
12959;DHT22;6544;51.666;6.634;2022-07-29T13:09:11;22.70;99.90
12959;DHT22;6544;51.666;6.634;2022-07-29T13:11:40;22.30;99.90
12959;DHT22;6544;51.666;6.634;2022-07-29T13:14:09;22.10;99.90
12959;DHT22;6544;51.666;6.634;2022-07-29T13:16:37;22.30;99.90
12959;DHT22;6544;51.666;6.634;2022-07-29T13:19:33;22.50;99.90
12959;DHT22;6544;51.666;6.634;2022-07-29T13:22:01;22.70;99.90
12959;DHT22;6544;51.666;6.634;2022-07-29T13:24:28;23.00;99.90
12959;DHT22;6544;51.666;6.634;2022-07-29T13:26:55;23.10;99.90
12959;DHT22;6544;51.666;6.634;2022-07-29T13:29:22;23.00;99.90
12959;DHT22;6544;51.666;6.634;2022-07-29T13:31:49;22.80;99.90
12959;DHT22;6544;51.666;6.634;2022-07-29T13:34:16;22.60;99.90
12959;DHT22;6544;51.666;6.634;2022-07-29T13:36:45;22.60;99.90
12959;DHT22;6544;51.666;6.634;2022-07-29T13:39:13;22.90;99.90
12959;DHT22;6544;51.666;6.634;2022-07-29T13:41:41;23.20;99.90
12959;DHT22;6544;51.666;6.634;2022-07-29T13:44:08;23.40;99.90
12959;DHT22;6544;51.666;6.634;2022-07-29T13:46:35;23.30;99.90
12959;DHT22;6544;51.666;6.634;2022-07-29T13:49:01;23.30;99.90
12959;DHT22;6544;51.666;6.634;2022-07-29T13:51:28;23.50;99.90
12959;DHT22;6544;51.666;6.634;2022-07-29T13:53:55;23.60;99.90
12959;DHT22;6544;51.666;6.634;2022-07-29T13:56:24;23.30;99.90
12959;DHT22;6544;51.666;6.634;2022-07-29T13:58:51;23.40;99.90
12959;DHT22;6544;51.666;6.634;2022-07-29T14:01:18;23.50;99.90
12959;DHT22;6544;51.666;6.634;2022-07-29T14:03:45;23.00;99.90
12959;DHT22;6544;51.666;6.634;2022-07-29T14:06:12;23.20;99.90
12959;DHT22;6544;51.666;6.634;2022-07-29T14:08:39;23.50;99.90
12959;DHT22;6544;51.666;6.634;2022-07-29T14:11:07;23.60;99.90
12959;DHT22;6544;51.666;6.634;2022-07-29T14:13:35;23.40;99.90
12959;DHT22;6544;51.666;6.634;2022-07-29T14:16:05;23.40;99.90
12959;DHT22;6544;51.666;6.634;2022-07-29T14:18:32;23.60;99.90
12959;DHT22;6544;51.666;6.634;2022-07-29T14:20:59;23.70;99.90
12959;DHT22;6544;51.666;6.634;2022-07-29T14:23:26;23.80;99.90
12959;DHT22;6544;51.666;6.634;2022-07-29T14:25:53;23.90;99.90
12959;DHT22;6544;51.666;6.634;2022-07-29T14:28:20;23.90;99.90
12959;DHT22;6544;51.666;6.634;2022-07-29T14:30:49;23.60;99.90
12959;DHT22;6544;51.666;6.634;2022-07-29T14:33:16;23.60;99.90
12959;DHT22;6544;51.666;6.634;2022-07-29T14:35:43;23.30;98.30
12959;DHT22;6544;51.666;6.634;2022-07-29T14:38:11;23.00;99.10
12959;DHT22;6544;51.666;6.634;2022-07-29T14:40:38;23.00;99.90
12959;DHT22;6544;51.666;6.634;2022-07-29T14:43:05;23.10;99.90
12959;DHT22;6544;51.666;6.634;2022-07-29T14:45:32;23.30;99.90
12959;DHT22;6544;51.666;6.634;2022-07-29T14:48:00;23.40;99.90
12959;DHT22;6544;51.666;6.634;2022-07-29T14:50:27;23.30;99.90
12959;DHT22;6544;51.666;6.634;2022-07-29T14:52:54;23.30;99.90
12959;DHT22;6544;51.666;6.634;2022-07-29T14:55:21;23.30;99.90
12959;DHT22;6544;51.666;6.634;2022-07-29T14:57:49;23.40;99.90
12959;DHT22;6544;51.666;6.634;2022-07-29T15:00:17;23.40;99.90
12959;DHT22;6544;51.666;6.634;2022-07-29T15:02:44;23.30;99.90
12959;DHT22;6544;51.666;6.634;2022-07-29T15:05:12;23.30;99.90
12959;DHT22;6544;51.666;6.634;2022-07-29T15:07:39;23.30;99.90
12959;DHT22;6544;51.666;6.634;2022-07-29T15:10:08;23.40;99.90
12959;DHT22;6544;51.666;6.634;2022-07-29T15:12:35;23.20;99.90
12959;DHT22;6544;51.666;6.634;2022-07-29T15:15:02;23.30;98.70
12959;DHT22;6544;51.666;6.634;2022-07-29T15:17:29;23.40;97.90
12959;DHT22;6544;51.666;6.634;2022-07-29T15:19:56;23.50;96.30
12959;DHT22;6544;51.666;6.634;2022-07-29T15:22:25;23.50;94.30
12959;DHT22;6544;51.666;6.634;2022-07-29T15:24:52;23.50;93.00
12959;DHT22;6544;51.666;6.634;2022-07-29T15:27:18;23.40;89.30
12959;DHT22;6544;51.666;6.634;2022-07-29T15:29:45;23.40;83.40
12959;DHT22;6544;51.666;6.634;2022-07-29T15:32:12;23.50;90.10
12959;DHT22;6544;51.666;6.634;2022-07-29T15:34:39;23.50;77.40
12959;DHT22;6544;51.666;6.634;2022-07-29T15:37:06;23.50;71.40
12959;DHT22;6544;51.666;6.634;2022-07-29T15:39:35;23.50;66.60
12959;DHT22;6544;51.666;6.634;2022-07-29T15:42:03;23.50;62.60
12959;DHT22;6544;51.666;6.634;2022-07-29T15:44:30;23.50;66.30
12959;DHT22;6544;51.666;6.634;2022-07-29T15:46:57;23.50;71.90
12959;DHT22;6544;51.666;6.634;2022-07-29T15:49:31;23.50;76.50
12959;DHT22;6544;51.666;6.634;2022-07-29T15:51:58;23.60;80.00
12959;DHT22;6544;51.666;6.634;2022-07-29T15:54:26;23.60;80.80
12959;DHT22;6544;51.666;6.634;2022-07-29T15:56:55;23.70;75.40
12959;DHT22;6544;51.666;6.634;2022-07-29T15:59:22;23.50;75.50
12959;DHT22;6544;51.666;6.634;2022-07-29T16:01:51;23.40;76.80